2019 Ballard Cup Series II
Jul 8, 2019

Sloop Tavern Yacht Club

Committee Boat - Boadicea

Race 6
R1 R2 R3 R4 R5 R6 Series Overall

Class: 1 - Non-Flying Sails Division - Start: 18:15:00 - Course: NMENMEN - Distance: 4.178      

Boat Name SailNo Boat Type Skipper Rating Club Start Finish Elapsed Corrected BCE Place OA
Whistling Swan 69494 Islander 36-1 Bill Pirrie 174 STYC 18:15:00 19:39:32 1:24:32 1:12:25 0:00:00 1 25
Amoretto 79104 Jeanneau Arcada Martin Bower 204 STYC 18:15:00 19:50:56 1:35:56 1:21:44 0:09:19 2 38
Gusto 44119 Swan 441 Beth Miller 108 STYC 18:15:00 19:45:59 1:30:59 1:23:28 0:11:03 3 40
White Rabbit 69366 J/40 Bradley Music 102 SBYC 18:15:00 19:52:34 1:37:34 1:30:28 0:18:03 4 47
No Ka Oi 15 J/80 Amy Deckelbaum 141 SSC 18:15:00 20:02:07 1:47:07 1:37:18 0:24:53 5 51
Blue Lullaby 391 Newport 28-2 John H Endresen 231 STYC 18:15:00 20:12:49 1:57:49 1:41:44 0:29:19 6 53
Billabong 4200 Lancer 36 Robert Kirkman 153 STYC 18:15:00 RET 7 55
Frog Prints 79070 Dufr D 34 Tim Onders 192 STYC 18:15:00 DNS 8 56
Midnight Escape 28206 Kirby (Mirage) 25 Borge Ellingsen 204 STYC 18:15:00 DNS 8 56
Stardust 79977 Hunter Legend 37.5 Tito Soto 153 STYC 18:15:00 DNS 8 56
Steve Zeliadt 97971 Catalina 380 Eric Olson 153 STYC 18:15:00 DNS 8 56
Wind Dancer 46489 Tartan 3800 Chris McMuldroch 153 STYC 18:15:00 DNS 8 56
Boadicea Helmet Ericson 32-3 Simon Ffitch 192 STYC 18:15:00 CB 8 56

Class: 2 - Flying Sails Division - Start: 18:20:00 - Course: NMENMEN - Distance: 4.178      

Boat Name SailNo Boat Type Skipper Rating Club Start Finish Elapsed Corrected BCE Place OA
Rock Lobster 59306 San Juan 7.7 Trent Piepho 210 STYC 18:20:00 19:44:23 1:24:23 1:09:46 0:00:00 1 21
Water Street 1376 Cal 2-24 Mark Jackson 252 STYC 18:20:00 19:49:04 1:29:04 1:11:31 0:01:45 2 24
Lady Too 59382 San Jaun 28 Damon Darley 201 STYC 18:20:00 19:46:46 1:26:46 1:12:46 0:03:00 3 26
Aquavit 3242 Interational Folkboat David Sinson 285 STYC 18:20:00 DNS 5 56
Wavelength 49922 Ranger 29 Eric Dunkel 198 STYC 18:20:00 DNS 5 56

Class: 3 - Flying Sails Division - Start: 18:25:00 - Course: NMENMEN - Distance: 4.178      

Boat Name SailNo Boat Type Skipper Rating Club Start Finish Elapsed Corrected BCE Place OA
More Uff Da 26 Moore 24-1 Ben Braden 168 STYC 18:25:00 19:36:50 1:11:50 1:00:08 0:00:00 1 4
La Lucha Moore 131 Moore 24 Joe Grieser 168 STYC 18:25:00 19:37:12 1:12:12 1:00:30 0:00:22 2 5
Elixir 29 Aphrodite 101 Megan Kogut 150 STYC 18:25:00 19:39:06 1:14:06 1:03:39 0:03:31 3 10
Zap 59269 Zap 26 Don Sarin 147 STYC 18:25:00 19:42:34 1:17:34 1:07:20 0:07:12 4 15
The Banana Stand 104 Santa Cruz 27 Adam Yuret 162 STYC 18:25:00 19:44:01 1:19:01 1:07:44 0:07:36 5 17
Perfectly Strange 87210 Pocket Rocket 22-1 Paul Kalina 174 STYC 18:25:00 19:56:17 1:31:17 1:19:10 0:19:02 6 32
Norn 49450 Santa Cruz 27 Mitch Leupold 150 STYC 18:25:00 20:05:41 1:40:41 1:30:14 0:30:06 7 46
Nw Filth 161 Martin 242 Jonathan Anderson 168 STYC 18:25:00 DNS 9 56
Three Ring Circus 37 Olson 25-1 Nate Creitz 174 STYC 18:25:00 DNS 9 56
Wild Card 55 Santa Cruz 27 Mike Cain 141 STYC 18:25:00 DNS 9 56

Class: 4 - Flying Sails Division - Start: 18:30:00 - Course: NMENMEN - Distance: 4.178      

Boat Name SailNo Boat Type Skipper Rating Club Start Finish Elapsed Corrected BCE Place OA
Airloom 69410 Baba 40-2 Tim Morgenroth 168 STYC 18:30:00 19:58:11 1:28:11 1:16:29 0:00:00 1 29
Velella 150 Wylie 31 Ryan Helling 165 STYC 18:30:00 19:59:31 1:29:31 1:18:02 0:01:33 2 31
Celtic Breeze 233 Ericson 35 Mk3 Glenn Knitter 159 STYC 18:30:00 20:00:23 1:30:23 1:19:19 0:02:50 3 33
Kamoon Na Jeanneau Michael Taft 163 STYC 18:30:00 20:16:11 1:46:11 1:34:50 0:18:21 4 49
20degrees 18602 Wylie 34 Duncan Chalmers 150 STYC 18:30:00 20:15:18 1:45:18 1:34:51 0:18:22 5 50
Sea Haven 930 Catalina 34 Cary Kaczowka 153 STYC 18:30:00 20:22:09 1:52:09 1:41:30 0:25:01 6 52
Mata Hari 1660 Catalina 36 Mkii Jeff Blyth 147 STYC 18:30:00 20:25:29 1:55:29 1:45:15 0:28:46 7 54
Grayling 7 Q-Class Duke H Phan 144 STYC 18:30:00 DSQ 8 55

Class: 5 - Flying Sails Division - Start: 18:35:00 - Course: NMENMEN - Distance: 4.178      

Boat Name SailNo Boat Type Skipper Rating Club Start Finish Elapsed Corrected BCE Place OA
Crazy Ivan USA-151 J/80 Bryan Rhodes 129 STYC 18:35:00 19:44:59 1:09:59 1:01:00 0:00:00 1 6
Taj Mahal 445 J/80 Ian Wong 129 SSC 18:35:00 19:53:53 1:18:53 1:09:54 0:08:54 2 22
Reckless 296 J/80 Emre Sezer 129 STYC 18:35:00 19:55:12 1:20:12 1:11:13 0:10:13 3 23
Namaste 257 J/80 John Lueders 129 SSC 18:35:00 20:04:25 1:29:25 1:20:26 0:19:26 4 36
Jolly Green 1 J/80 Mike Poole 129 SSC 18:35:00 20:06:57 1:31:57 1:22:58 0:21:58 5 39
Underdog 85 J/80 Dulnath Wijayratne 129 SSC 18:35:00 20:08:21 1:33:21 1:24:22 0:23:22 6 42
Uproar 41 J/80 Steve Neidhardt 129 SSC 18:35:00 20:11:39 1:36:39 1:27:40 0:26:40 7 44
Fearful Symmetry 331 J/80 Elise Sivilay 129 SSC 18:35:00 20:14:01 1:39:01 1:30:02 0:29:02 8 45
Stellar J 546 J/80 Andreas Wieberneit 129 SSC 18:35:00 20:18:02 1:43:02 1:34:03 0:33:03 9 48

Class: 6 - Flying Sails Division - Start: 18:40:00 - Course: NMENMEN - Distance: 4.178      

Boat Name SailNo Boat Type Skipper Rating Club Start Finish Elapsed Corrected BCE Place OA
Poke & Destroy 69061 Evelyn 32-2 Alex P Simanis 93 STYC 18:40:00 19:43:07 1:03:07 0:56:38 0:00:00 1 1
Gaucho 68 Ross 930 John Cahill 114 CYC 18:40:00 19:49:42 1:09:42 1:01:46 0:05:08 2 8
Different Drummer 52804 Wauqueiz Centurion 40s Charles Hill 81 STYC 18:40:00 19:48:27 1:08:27 1:02:49 0:06:11 3 9
Poisson Soluble 69351 Hobie 33 Robert Horsley 96 STYC 18:40:00 19:51:32 1:11:32 1:04:51 0:08:13 4 11
Ruby 87603 J/29 Mh John Kazaras 120 STYC 18:40:00 19:53:41 1:13:41 1:05:20 0:08:42 5 12
Wings 244 J/29 (Fractional Rig) Jim Moynihan 120 STYC 18:40:00 19:54:44 1:14:44 1:06:23 0:09:45 6 14
Outlaw 77108 J/30 Cindy Gossett 138 STYC 18:40:00 20:05:53 1:25:53 1:16:16 0:19:38 7 28
Kowloon 17 Olson 911 Ken Chin 129 STYC 18:40:00 20:08:21 1:28:21 1:19:22 0:22:44 8 34
Wizard 40427 J/27 Leo Morales 135 WYC 18:40:00 20:09:10 1:29:10 1:19:46 0:23:08 9 35
Latitude 60680 Jeanneau 409 Bill Gibson 93 STYC 18:40:00 DNS 11 56

Class: 7 - Flying Sails Division - Start: 18:45:00 - Course: NMENMEN - Distance: 4.178      

Boat Name SailNo Boat Type Skipper Rating Club Start Finish Elapsed Corrected BCE Place OA
Corvo 105 475 J/105 Tom Kerr 93 STYC 18:45:00 20:00:33 1:15:33 1:09:04 0:00:00 1 20
Puff 115 J/105 Ryan Porter 93 SSC 18:45:00 20:06:59 1:21:59 1:15:30 0:06:26 2 27
Liftoff 621 J/105 Philippe M Le Mouel 93 STYC 18:45:00 20:08:48 1:23:48 1:17:19 0:08:15 3 30
Creative 51911 J/105 Lloyd Fogg 93 SSC 18:45:00 20:12:34 1:27:34 1:21:05 0:12:01 4 37
Paladin 412 J/105 Phil Bylsma 93 SSC 18:45:00 20:16:22 1:31:22 1:24:53 0:15:49 5 43
Avalanche 495 J/105 Jeremy Boynes 93 STYC 18:45:00 DNS 7 56
Peer Gynt 235 J/105 Sara Billey 93 STYC 18:45:00 DNS 7 56

Class: 8 - Flying Sails Division - Start: 18:50:00 - Course: NMENMEN - Distance: 4.178      

Boat Name SailNo Boat Type Skipper Rating Club Start Finish Elapsed Corrected BCE Place OA
Nefarious USA 53 Farr 30 Daniel Randolph 54 STYC 18:50:00 19:51:45 1:01:45 0:57:59 0:00:00 1 2
Project Mayhem USA 64 Farr 30 Grady Morgan 54 CYC 18:50:00 19:52:00 1:02:00 0:58:14 0:00:15 2 3
Bat Out Of Hell USA 55 Farr 30 Lance Staughton 54 STYC 18:50:00 19:55:06 1:05:06 1:01:20 0:03:21 3 7
Eclipse 256 J/109-2 Fraser 69 STYC 18:50:00 20:00:22 1:10:22 1:05:34 0:07:35 4 13
Those Guys 18155 J/35 Jenny Heins 72 STYC 18:50:00 20:02:26 1:12:26 1:07:25 0:09:26 5 16
Tachyon 36000 Farr 39 C/R Jack Yinger 18 CYC 18:50:00 19:59:18 1:09:18 1:08:03 0:10:04 6 18
Lapa 309 J/109 Michael Campbell 69 STYC 18:50:00 20:03:30 1:13:30 1:08:42 0:10:43 7 19
Escape 69160 Corsair F -27 Yury Palatnik 79 STYC 18:50:00 20:19:43 1:29:43 1:24:13 0:26:14 8 41
Freda Mae 79030 Multihull - Corsair F31 Vincent Depillis -9 Northwest Multihull Assocation 18:50:00 DNS 10 56
With Grace 50791 J/120 Ken S Jones 57 STYC 18:50:00 DNS 10 56

STYC scoring (Tue, May 21, 2019 - 00:05:45 ver)